sensor_id;sensor_type;location;lat;lon;timestamp;pressure;altitude;pressure_sealevel;temperature;humidity
59435;BME280;45241;49.768;8.636;2023-04-01T00:01:30;98602.63;;;12.76;79.41
59435;BME280;45241;49.768;8.636;2023-04-01T00:03:56;98596.84;;;12.50;79.16
59435;BME280;45241;49.768;8.636;2023-04-01T00:06:21;98591.06;;;12.58;79.31
59435;BME280;45241;49.768;8.636;2023-04-01T00:08:47;98595.31;;;12.71;79.10
59435;BME280;45241;49.768;8.636;2023-04-01T00:11:13;98595.78;;;12.68;79.11
59435;BME280;45241;49.768;8.636;2023-04-01T00:13:38;98595.38;;;12.59;78.24
59435;BME280;45241;49.768;8.636;2023-04-01T00:16:04;98596.03;;;12.50;77.36
59435;BME280;45241;49.768;8.636;2023-04-01T00:18:30;98597.25;;;12.59;77.26
59435;BME280;45241;49.768;8.636;2023-04-01T00:20:55;98587.56;;;12.58;77.02
59435;BME280;45241;49.768;8.636;2023-04-01T00:23:21;98609.31;;;12.73;76.65
59435;BME280;45241;49.768;8.636;2023-04-01T00:25:47;98575.81;;;12.64;76.62
59435;BME280;45241;49.768;8.636;2023-04-01T00:28:15;98582.13;;;12.70;75.61
59435;BME280;45241;49.768;8.636;2023-04-01T00:30:40;98593.59;;;12.65;76.01
59435;BME280;45241;49.768;8.636;2023-04-01T00:33:06;98577.38;;;12.60;76.01
59435;BME280;45241;49.768;8.636;2023-04-01T00:35:31;98574.44;;;12.61;76.20
59435;BME280;45241;49.768;8.636;2023-04-01T00:37:57;98582.94;;;12.70;75.79
59435;BME280;45241;49.768;8.636;2023-04-01T00:40:30;98577.56;;;12.70;76.29
59435;BME280;45241;49.768;8.636;2023-04-01T00:42:55;98574.13;;;12.58;76.31
59435;BME280;45241;49.768;8.636;2023-04-01T00:45:46;98574.59;;;12.55;76.09
59435;BME280;45241;49.768;8.636;2023-04-01T00:48:16;98583.00;;;12.58;76.67
59435;BME280;45241;49.768;8.636;2023-04-01T00:50:46;98585.13;;;12.56;76.16
59435;BME280;45241;49.768;8.636;2023-04-01T00:53:14;98581.63;;;12.56;76.24
59435;BME280;45241;49.768;8.636;2023-04-01T00:55:46;98581.13;;;12.59;75.54
59435;BME280;45241;49.768;8.636;2023-04-01T00:58:17;98578.59;;;12.52;75.56
59435;BME280;45241;49.768;8.636;2023-04-01T01:00:46;98577.38;;;12.60;75.65
59435;BME280;45241;49.768;8.636;2023-04-01T01:03:13;98580.56;;;12.57;75.68
59435;BME280;45241;49.768;8.636;2023-04-01T01:06:10;98577.56;;;12.70;75.40
59435;BME280;45241;49.768;8.636;2023-04-01T01:11:40;98577.31;;;12.72;74.86
59435;BME280;45241;49.768;8.636;2023-04-01T01:16:58;98587.38;;;12.65;75.06
59435;BME280;45241;49.768;8.636;2023-04-01T01:19:46;98580.00;;;12.72;75.87
59435;BME280;45241;49.768;8.636;2023-04-01T01:25:11;98553.25;;;12.82;75.09
59435;BME280;45241;49.768;8.636;2023-04-01T01:27:41;98560.34;;;12.71;75.60
59435;BME280;45241;49.768;8.636;2023-04-01T01:30:36;98547.63;;;12.83;74.86
59435;BME280;45241;49.768;8.636;2023-04-01T01:33:17;98546.41;;;12.74;75.25
59435;BME280;45241;49.768;8.636;2023-04-01T01:35:49;98545.09;;;12.77;76.11
59435;BME280;45241;49.768;8.636;2023-04-01T01:38:20;98553.81;;;12.67;75.36
59435;BME280;45241;49.768;8.636;2023-04-01T01:40:50;98562.63;;;12.62;75.00
59435;BME280;45241;49.768;8.636;2023-04-01T01:43:21;98543.81;;;12.62;74.96
59435;BME280;45241;49.768;8.636;2023-04-01T01:45:50;98542.09;;;12.73;74.89
59435;BME280;45241;49.768;8.636;2023-04-01T01:48:18;98535.97;;;12.78;75.34
59435;BME280;45241;49.768;8.636;2023-04-01T01:50:45;98538.59;;;12.73;75.83
59435;BME280;45241;49.768;8.636;2023-04-01T01:53:12;98543.66;;;12.69;75.71
59435;BME280;45241;49.768;8.636;2023-04-01T01:55:45;98540.97;;;12.52;75.87
59435;BME280;45241;49.768;8.636;2023-04-01T01:58:22;98517.13;;;12.56;76.07
59435;BME280;45241;49.768;8.636;2023-04-01T02:00:58;98535.84;;;12.51;75.59
59435;BME280;45241;49.768;8.636;2023-04-01T02:03:25;98529.25;;;12.58;75.62
59435;BME280;45241;49.768;8.636;2023-04-01T02:05:55;98528.75;;;12.61;75.60
59435;BME280;45241;49.768;8.636;2023-04-01T02:08:25;98536.00;;;12.61;75.35
59435;BME280;45241;49.768;8.636;2023-04-01T02:10:57;98537.78;;;12.72;74.80
59435;BME280;45241;49.768;8.636;2023-04-01T02:13:31;98533.31;;;12.61;75.14
59435;BME280;45241;49.768;8.636;2023-04-01T02:16:00;98538.94;;;12.59;75.61
59435;BME280;45241;49.768;8.636;2023-04-01T02:18:28;98529.81;;;12.60;76.19
59435;BME280;45241;49.768;8.636;2023-04-01T02:20:57;98557.91;;;12.53;75.99
59435;BME280;45241;49.768;8.636;2023-04-01T02:23:25;98544.41;;;12.48;75.86
59435;BME280;45241;49.768;8.636;2023-04-01T02:25:51;98538.78;;;12.49;75.94
59435;BME280;45241;49.768;8.636;2023-04-01T02:28:18;98545.03;;;12.55;75.76
59435;BME280;45241;49.768;8.636;2023-04-01T02:30:47;98550.66;;;12.53;76.36
59435;BME280;45241;49.768;8.636;2023-04-01T02:33:14;98542.34;;;12.55;76.05
59435;BME280;45241;49.768;8.636;2023-04-01T02:35:40;98541.88;;;12.58;75.44
59435;BME280;45241;49.768;8.636;2023-04-01T02:38:06;98547.88;;;12.65;75.48
59435;BME280;45241;49.768;8.636;2023-04-01T02:40:47;98540.47;;;12.55;75.78
59435;BME280;45241;49.768;8.636;2023-04-01T02:43:13;98553.25;;;12.65;75.21
59435;BME280;45241;49.768;8.636;2023-04-01T02:45:39;98546.34;;;12.69;75.64
59435;BME280;45241;49.768;8.636;2023-04-01T02:48:04;98543.47;;;12.76;75.42
59435;BME280;45241;49.768;8.636;2023-04-01T02:50:30;98550.19;;;12.56;76.08
59435;BME280;45241;49.768;8.636;2023-04-01T02:52:55;98544.66;;;12.46;76.64
59435;BME280;45241;49.768;8.636;2023-04-01T02:55:21;98556.28;;;12.52;75.98
59435;BME280;45241;49.768;8.636;2023-04-01T02:57:46;98542.53;;;12.31;77.35
59435;BME280;45241;49.768;8.636;2023-04-01T03:00:12;98547.72;;;12.38;77.52
59435;BME280;45241;49.768;8.636;2023-04-01T03:02:38;98549.59;;;12.38;77.57
59435;BME280;45241;49.768;8.636;2023-04-01T03:05:04;98542.03;;;12.35;77.72
59435;BME280;45241;49.768;8.636;2023-04-01T03:07:30;98541.28;;;12.39;77.80
59435;BME280;45241;49.768;8.636;2023-04-01T03:09:56;98542.19;;;12.45;78.00
59435;BME280;45241;49.768;8.636;2023-04-01T03:12:21;98538.09;;;12.42;77.68
59435;BME280;45241;49.768;8.636;2023-04-01T03:14:46;98538.09;;;12.25;78.54
59435;BME280;45241;49.768;8.636;2023-04-01T03:17:12;98541.59;;;12.26;78.88
59435;BME280;45241;49.768;8.636;2023-04-01T03:19:37;98546.59;;;12.34;78.81
59435;BME280;45241;49.768;8.636;2023-04-01T03:22:02;98540.16;;;12.35;79.24
59435;BME280;45241;49.768;8.636;2023-04-01T03:24:27;98544.78;;;12.23;79.54
59435;BME280;45241;49.768;8.636;2023-04-01T03:26:53;98543.16;;;12.22;79.73
59435;BME280;45241;49.768;8.636;2023-04-01T03:29:18;98533.88;;;12.29;80.04
59435;BME280;45241;49.768;8.636;2023-04-01T03:31:43;98545.78;;;12.17;80.22
59435;BME280;45241;49.768;8.636;2023-04-01T03:34:09;98543.91;;;12.17;80.29
59435;BME280;45241;49.768;8.636;2023-04-01T03:36:34;98543.97;;;12.22;78.89
59435;BME280;45241;49.768;8.636;2023-04-01T03:39:00;98547.72;;;12.21;79.51
59435;BME280;45241;49.768;8.636;2023-04-01T03:41:25;98551.66;;;12.30;78.77
59435;BME280;45241;49.768;8.636;2023-04-01T03:43:53;98552.41;;;12.14;79.08
59435;BME280;45241;49.768;8.636;2023-04-01T03:46:19;98544.78;;;12.06;79.25
59435;BME280;45241;49.768;8.636;2023-04-01T03:48:45;98544.59;;;12.13;79.28
59435;BME280;45241;49.768;8.636;2023-04-01T03:51:10;98546.66;;;12.22;78.57
59435;BME280;45241;49.768;8.636;2023-04-01T03:53:36;98548.22;;;12.18;79.12
59435;BME280;45241;49.768;8.636;2023-04-01T03:56:08;98541.53;;;12.21;78.27
59435;BME280;45241;49.768;8.636;2023-04-01T03:58:34;98550.78;;;12.13;78.61
59435;BME280;45241;49.768;8.636;2023-04-01T04:00:59;98540.41;;;12.17;78.75
59435;BME280;45241;49.768;8.636;2023-04-01T04:03:25;98533.47;;;12.21;78.33
59435;BME280;45241;49.768;8.636;2023-04-01T04:05:51;98541.84;;;12.08;79.18
59435;BME280;45241;49.768;8.636;2023-04-01T04:08:16;98535.16;;;12.10;78.43
59435;BME280;45241;49.768;8.636;2023-04-01T04:10:42;98535.41;;;12.25;78.73
59435;BME280;45241;49.768;8.636;2023-04-01T04:13:08;98537.28;;;12.25;78.12
59435;BME280;45241;49.768;8.636;2023-04-01T04:15:33;98537.53;;;12.23;78.31
59435;BME280;45241;49.768;8.636;2023-04-01T04:17:58;98536.97;;;12.21;78.83
59435;BME280;45241;49.768;8.636;2023-04-01T04:20:24;98540.16;;;12.18;78.39
59435;BME280;45241;49.768;8.636;2023-04-01T04:22:49;98537.13;;;12.15;79.17
59435;BME280;45241;49.768;8.636;2023-04-01T04:25:14;98530.44;;;12.00;79.37
59435;BME280;45241;49.768;8.636;2023-04-01T04:27:40;98526.38;;;12.15;79.12
59435;BME280;45241;49.768;8.636;2023-04-01T04:30:06;98532.22;;;12.12;79.82
59435;BME280;45241;49.768;8.636;2023-04-01T04:32:32;98524.34;;;12.22;79.51
59435;BME280;45241;49.768;8.636;2023-04-01T04:34:57;98544.03;;;12.11;79.71
59435;BME280;45241;49.768;8.636;2023-04-01T04:37:22;98529.34;;;12.30;78.70
59435;BME280;45241;49.768;8.636;2023-04-01T04:39:48;98527.53;;;12.19;79.61
59435;BME280;45241;49.768;8.636;2023-04-01T04:42:13;98519.72;;;12.17;79.38
59435;BME280;45241;49.768;8.636;2023-04-01T04:44:39;98533.72;;;12.19;79.45
59435;BME280;45241;49.768;8.636;2023-04-01T04:47:04;98525.72;;;12.08;80.14
59435;BME280;45241;49.768;8.636;2023-04-01T04:49:30;98526.88;;;12.12;79.63
59435;BME280;45241;49.768;8.636;2023-04-01T04:51:55;98541.66;;;12.14;79.68
59435;BME280;45241;49.768;8.636;2023-04-01T04:54:20;98528.72;;;12.11;79.79
59435;BME280;45241;49.768;8.636;2023-04-01T04:56:46;98537.84;;;12.10;79.53
59435;BME280;45241;49.768;8.636;2023-04-01T04:59:11;98532.09;;;12.18;79.60
59435;BME280;45241;49.768;8.636;2023-04-01T05:01:38;98539.41;;;12.23;79.94
59435;BME280;45241;49.768;8.636;2023-04-01T05:04:03;98535.91;;;12.22;79.04
59435;BME280;45241;49.768;8.636;2023-04-01T05:06:28;98542.25;;;12.16;79.47
59435;BME280;45241;49.768;8.636;2023-04-01T05:08:54;98535.16;;;12.10;79.47
59435;BME280;45241;49.768;8.636;2023-04-01T05:11:20;98523.28;;;12.23;79.36
59435;BME280;45241;49.768;8.636;2023-04-01T05:13:46;98536.16;;;12.21;79.31
59435;BME280;45241;49.768;8.636;2023-04-01T05:16:16;98532.09;;;12.18;79.13
59435;BME280;45241;49.768;8.636;2023-04-01T05:18:42;98527.84;;;12.22;79.30
59435;BME280;45241;49.768;8.636;2023-04-01T05:21:10;98527.44;;;12.14;79.07
59435;BME280;45241;49.768;8.636;2023-04-01T05:23:35;98527.03;;;12.22;78.94
59435;BME280;45241;49.768;8.636;2023-04-01T05:26:10;98524.44;;;12.27;78.51
59435;BME280;45241;49.768;8.636;2023-04-01T05:28:35;98531.78;;;12.31;78.13
59435;BME280;45241;49.768;8.636;2023-04-01T05:31:02;98531.59;;;12.21;78.14
59435;BME280;45241;49.768;8.636;2023-04-01T05:33:29;98529.97;;;12.20;78.09
59435;BME280;45241;49.768;8.636;2023-04-01T05:35:55;98531.28;;;12.18;78.07
59435;BME280;45241;49.768;8.636;2023-04-01T05:38:20;98527.19;;;12.15;79.17
59435;BME280;45241;49.768;8.636;2023-04-01T05:40:45;98531.09;;;12.08;78.61
59435;BME280;45241;49.768;8.636;2023-04-01T05:43:11;98537.28;;;12.08;78.90
59435;BME280;45241;49.768;8.636;2023-04-01T05:45:36;98523.94;;;12.13;78.36
59435;BME280;45241;49.768;8.636;2023-04-01T05:48:02;98521.50;;;12.28;78.33
59435;BME280;45241;49.768;8.636;2023-04-01T05:50:28;98507.81;;;12.13;78.97
59435;BME280;45241;49.768;8.636;2023-04-01T05:52:53;98525.56;;;12.14;79.40
59435;BME280;45241;49.768;8.636;2023-04-01T05:55:18;98513.69;;;12.10;79.33
59435;BME280;45241;49.768;8.636;2023-04-01T05:57:45;98518.06;;;12.16;79.70
59435;BME280;45241;49.768;8.636;2023-04-01T06:00:11;98516.78;;;12.19;79.58
59435;BME280;45241;49.768;8.636;2023-04-01T06:02:36;98509.06;;;12.22;79.38
59435;BME280;45241;49.768;8.636;2023-04-01T06:05:13;98509.13;;;12.27;78.76
59435;BME280;45241;49.768;8.636;2023-04-01T06:07:40;98518.91;;;12.17;79.03
59435;BME280;45241;49.768;8.636;2023-04-01T06:10:14;98519.72;;;12.34;79.33
59435;BME280;45241;49.768;8.636;2023-04-01T06:12:48;98517.34;;;12.38;79.24
59435;BME280;45241;49.768;8.636;2023-04-01T06:15:52;98509.13;;;12.27;79.47
59435;BME280;45241;49.768;8.636;2023-04-01T06:19:07;98504.00;;;12.09;80.07
59435;BME280;45241;49.768;8.636;2023-04-01T06:35:20;98508.31;;;12.27;80.24
59435;BME280;45241;49.768;8.636;2023-04-01T06:41:06;98505.75;;;12.03;80.94
59435;BME280;45241;49.768;8.636;2023-04-01T06:54:18;98516.44;;;12.15;80.62
59435;BME280;45241;49.768;8.636;2023-04-01T06:56:48;98516.28;;;12.22;80.42
59435;BME280;45241;49.768;8.636;2023-04-01T06:59:18;98520.84;;;12.21;80.22
59435;BME280;45241;49.768;8.636;2023-04-01T07:01:53;98511.88;;;12.16;80.63
59435;BME280;45241;49.768;8.636;2023-04-01T07:04:28;98517.59;;;12.19;80.35
59435;BME280;45241;49.768;8.636;2023-04-01T07:07:24;98518.97;;;12.22;80.32
59435;BME280;45241;49.768;8.636;2023-04-01T07:09:53;98530.09;;;11.97;81.78
59435;BME280;45241;49.768;8.636;2023-04-01T07:15:03;98528.31;;;12.02;82.28
59435;BME280;45241;49.768;8.636;2023-04-01T07:17:33;98528.72;;;12.11;82.42
59435;BME280;45241;49.768;8.636;2023-04-01T07:22:43;98532.56;;;12.15;82.20
59435;BME280;45241;49.768;8.636;2023-04-01T07:25:16;98536.41;;;12.19;82.33
59435;BME280;45241;49.768;8.636;2023-04-01T07:27:42;98529.97;;;12.20;82.02
59435;BME280;45241;49.768;8.636;2023-04-01T07:30:14;98527.97;;;11.99;83.44
59435;BME280;45241;49.768;8.636;2023-04-01T07:32:59;98532.63;;;12.03;83.20
59435;BME280;45241;49.768;8.636;2023-04-01T07:38:50;98536.47;;;12.24;82.83
59435;BME280;45241;49.768;8.636;2023-04-01T07:44:38;98539.72;;;12.26;83.80
59435;BME280;45241;49.768;8.636;2023-04-01T07:47:20;98539.72;;;12.26;83.00
59435;BME280;45241;49.768;8.636;2023-04-01T07:50:02;98537.06;;;12.43;82.54
59435;BME280;45241;49.768;8.636;2023-04-01T07:53:00;98534.53;;;12.37;81.90
59435;BME280;45241;49.768;8.636;2023-04-01T07:55:39;98542.03;;;12.35;82.66
59435;BME280;45241;49.768;8.636;2023-04-01T08:00:53;98545.03;;;12.38;82.49
59435;BME280;45241;49.768;8.636;2023-04-01T08:06:22;98545.94;;;12.44;83.11
59435;BME280;45241;49.768;8.636;2023-04-01T08:17:17;98538.09;;;12.42;83.21
59435;BME280;45241;49.768;8.636;2023-04-01T08:20:05;98561.66;;;12.52;82.58
59435;BME280;45241;49.768;8.636;2023-04-01T08:22:40;98549.09;;;12.41;82.28
59435;BME280;45241;49.768;8.636;2023-04-01T08:25:13;98559.84;;;12.41;82.46
59435;BME280;45241;49.768;8.636;2023-04-01T08:27:47;98551.66;;;12.47;82.69
59435;BME280;45241;49.768;8.636;2023-04-01T08:30:24;98554.97;;;12.38;83.06
59435;BME280;45241;49.768;8.636;2023-04-01T08:32:59;98556.84;;;12.37;84.47
59435;BME280;45241;49.768;8.636;2023-04-01T08:35:47;98556.84;;;12.37;84.79
59435;BME280;45241;49.768;8.636;2023-04-01T08:38:23;98566.03;;;12.41;86.37
59435;BME280;45241;49.768;8.636;2023-04-01T08:41:01;98563.78;;;12.33;87.51
59435;BME280;45241;49.768;8.636;2023-04-01T08:46:56;98563.78;;;12.33;89.45
59435;BME280;45241;49.768;8.636;2023-04-01T08:49:55;98559.94;;;12.46;89.76
59435;BME280;45241;49.768;8.636;2023-04-01T09:04:10;98567.19;;;12.45;89.30
59435;BME280;45241;49.768;8.636;2023-04-01T09:28:54;98587.88;;;12.61;90.10
59435;BME280;45241;49.768;8.636;2023-04-01T09:34:35;98592.38;;;12.56;90.82
59435;BME280;45241;49.768;8.636;2023-04-01T09:37:18;98590.66;;;12.50;92.31
59435;BME280;45241;49.768;8.636;2023-04-01T09:40:02;98605.16;;;12.49;93.37
59435;BME280;45241;49.768;8.636;2023-04-01T09:48:46;98612.69;;;12.18;99.21
59435;BME280;45241;49.768;8.636;2023-04-01T09:51:23;98616.59;;;12.27;100.00
59435;BME280;45241;49.768;8.636;2023-04-01T09:54:05;98613.66;;;12.29;100.00
59435;BME280;45241;49.768;8.636;2023-04-01T09:59:21;98607.41;;;12.23;100.00
59435;BME280;45241;49.768;8.636;2023-04-01T10:10:14;98611.66;;;12.53;100.00
59435;BME280;45241;49.768;8.636;2023-04-01T10:18:09;98619.59;;;12.59;100.00
59435;BME280;45241;49.768;8.636;2023-04-01T10:23:43;98609.38;;;12.61;100.00
59435;BME280;45241;49.768;8.636;2023-04-01T10:31:57;98618.63;;;12.82;100.00
59435;BME280;45241;49.768;8.636;2023-04-01T10:34:46;98620.88;;;12.74;99.70
59435;BME280;45241;49.768;8.636;2023-04-01T10:43:15;98622.16;;;12.54;100.00
59435;BME280;45241;49.768;8.636;2023-04-01T10:46:10;98619.31;;;12.78;99.68
59435;BME280;45241;49.768;8.636;2023-04-01T10:51:49;98616.31;;;12.74;100.00
59435;BME280;45241;49.768;8.636;2023-04-01T10:54:43;98614.50;;;12.80;100.00
59435;BME280;45241;49.768;8.636;2023-04-01T10:57:18;98622.09;;;12.66;100.00
59435;BME280;45241;49.768;8.636;2023-04-01T11:00:13;98623.56;;;12.57;100.00
59435;BME280;45241;49.768;8.636;2023-04-01T11:11:12;98632.03;;;12.66;100.00
59435;BME280;45241;49.768;8.636;2023-04-01T11:39:05;98646.28;;;12.66;100.00
59435;BME280;45241;49.768;8.636;2023-04-01T11:44:34;98647.59;;;12.80;100.00
59435;BME280;45241;49.768;8.636;2023-04-01T11:47:34;98659.09;;;12.59;100.00
59435;BME280;45241;49.768;8.636;2023-04-01T11:50:32;98653.88;;;12.69;100.00
59435;BME280;45241;49.768;8.636;2023-04-01T11:53:10;98658.72;;;12.55;100.00
59435;BME280;45241;49.768;8.636;2023-04-01T11:55:50;98656.16;;;12.60;100.00
59435;BME280;45241;49.768;8.636;2023-04-01T11:59:04;98664.53;;;12.64;100.00
59435;BME280;45241;49.768;8.636;2023-04-01T12:01:21;98661.28;;;12.62;100.00
59435;BME280;45241;49.768;8.636;2023-04-01T12:12:31;98666.84;;;12.72;100.00
59435;BME280;45241;49.768;8.636;2023-04-01T12:15:13;98672.53;;;12.76;100.00
59435;BME280;45241;49.768;8.636;2023-04-01T12:17:49;98675.78;;;12.61;100.00
59435;BME280;45241;49.768;8.636;2023-04-01T12:23:28;98668.28;;;12.80;100.00
59435;BME280;45241;49.768;8.636;2023-04-01T12:26:21;98667.63;;;12.56;100.00
59435;BME280;45241;49.768;8.636;2023-04-01T12:28:59;98674.41;;;12.75;100.00
59435;BME280;45241;49.768;8.636;2023-04-01T12:34:50;98694.69;;;12.66;100.00
59435;BME280;45241;49.768;8.636;2023-04-01T12:37:22;98667.09;;;12.87;100.00
59435;BME280;45241;49.768;8.636;2023-04-01T12:42:41;98672.28;;;12.77;100.00
59435;BME280;45241;49.768;8.636;2023-04-01T12:45:34;98674.03;;;12.83;100.00
59435;BME280;45241;49.768;8.636;2023-04-01T13:02:01;98684.28;;;12.70;100.00
59435;BME280;45241;49.768;8.636;2023-04-01T13:05:09;98685.91;;;12.71;100.00
59435;BME280;45241;49.768;8.636;2023-04-01T13:07:53;98697.78;;;12.75;100.00
59435;BME280;45241;49.768;8.636;2023-04-01T13:16:31;98699.66;;;12.74;100.00
59435;BME280;45241;49.768;8.636;2023-04-01T13:19:04;98703.50;;;12.78;100.00
59435;BME280;45241;49.768;8.636;2023-04-01T13:21:44;98707.41;;;12.71;100.00
59435;BME280;45241;49.768;8.636;2023-04-01T13:30:02;98713.03;;;12.69;100.00
59435;BME280;45241;49.768;8.636;2023-04-01T13:32:36;98711.25;;;12.75;100.00
59435;BME280;45241;49.768;8.636;2023-04-01T13:43:00;98712.50;;;12.55;100.00
59435;BME280;45241;49.768;8.636;2023-04-01T13:50:52;98721.00;;;12.64;100.00
59435;BME280;45241;49.768;8.636;2023-04-01T13:53:39;98723.03;;;12.57;100.00
59435;BME280;45241;49.768;8.636;2023-04-01T13:59:26;98731.50;;;12.66;100.00
59435;BME280;45241;49.768;8.636;2023-04-01T14:03:15;98723.53;;;12.71;100.00
59435;BME280;45241;49.768;8.636;2023-04-01T14:05:28;98725.22;;;12.60;100.00
59435;BME280;45241;49.768;8.636;2023-04-01T14:08:20;98730.03;;;12.58;100.00
59435;BME280;45241;49.768;8.636;2023-04-01T14:11:56;98732.56;;;12.65;100.00
59435;BME280;45241;49.768;8.636;2023-04-01T14:14:24;98730.75;;;12.53;100.00
59435;BME280;45241;49.768;8.636;2023-04-01T14:30:20;98735.88;;;12.55;100.00
59435;BME280;45241;49.768;8.636;2023-04-01T14:33:04;98742.41;;;12.59;100.00
59435;BME280;45241;49.768;8.636;2023-04-01T14:35:37;98742.75;;;12.62;100.00
59435;BME280;45241;49.768;8.636;2023-04-01T14:41:08;98750.00;;;12.62;100.00
59435;BME280;45241;49.768;8.636;2023-04-01T14:46:43;98754.59;;;12.78;100.00
59435;BME280;45241;49.768;8.636;2023-04-01T14:49:22;98755.88;;;12.76;100.00
59435;BME280;45241;49.768;8.636;2023-04-01T14:51:50;98754.75;;;12.72;100.00
59435;BME280;45241;49.768;8.636;2023-04-01T14:54:31;98761.19;;;12.71;100.00
59435;BME280;45241;49.768;8.636;2023-04-01T14:57:24;98760.78;;;12.79;100.00
59435;BME280;45241;49.768;8.636;2023-04-01T15:08:09;98767.78;;;12.80;100.00
59435;BME280;45241;49.768;8.636;2023-04-01T15:13:56;98774.03;;;12.69;100.00
59435;BME280;45241;49.768;8.636;2023-04-01T15:16:45;98767.53;;;12.81;100.00
59435;BME280;45241;49.768;8.636;2023-04-01T15:19:28;98775.25;;;12.89;100.00
59435;BME280;45241;49.768;8.636;2023-04-01T15:22:22;98779.16;;;12.82;100.00
59435;BME280;45241;49.768;8.636;2023-04-01T15:25:17;98774.03;;;12.69;100.00
59435;BME280;45241;49.768;8.636;2023-04-01T15:31:28;98801.75;;;12.69;99.47
59435;BME280;45241;49.768;8.636;2023-04-01T15:34:16;98783.28;;;12.73;99.75
59435;BME280;45241;49.768;8.636;2023-04-01T15:37:06;98799.78;;;12.93;99.60
59435;BME280;45241;49.768;8.636;2023-04-01T15:42:40;98791.84;;;12.98;98.25
59435;BME280;45241;49.768;8.636;2023-04-01T15:50:44;98803.59;;;13.09;97.35
59435;BME280;45241;49.768;8.636;2023-04-01T15:53:21;98808.53;;;13.00;94.23
59435;BME280;45241;49.768;8.636;2023-04-01T15:58:59;98803.91;;;12.96;94.06
59435;BME280;45241;49.768;8.636;2023-04-01T16:04:33;98803.91;;;12.96;93.21
59435;BME280;45241;49.768;8.636;2023-04-01T16:12:56;98819.13;;;13.07;90.96
59435;BME280;45241;49.768;8.636;2023-04-01T16:15:44;98831.78;;;13.06;91.73
59435;BME280;45241;49.768;8.636;2023-04-01T16:18:36;98828.28;;;13.06;91.56
59435;BME280;45241;49.768;8.636;2023-04-01T16:21:14;98831.38;;;12.98;88.12
59435;BME280;45241;49.768;8.636;2023-04-01T16:23:51;98831.69;;;13.01;88.73
59435;BME280;45241;49.768;8.636;2023-04-01T16:26:38;98832.03;;;13.05;88.47
59435;BME280;45241;49.768;8.636;2023-04-01T16:29:27;98837.22;;;12.95;89.11
59435;BME280;45241;49.768;8.636;2023-04-01T16:32:11;98833.31;;;13.02;87.62
59435;BME280;45241;49.768;8.636;2023-04-01T16:35:01;98831.97;;;12.88;88.16
59435;BME280;45241;49.768;8.636;2023-04-01T16:37:36;98842.22;;;13.03;87.35
59435;BME280;45241;49.768;8.636;2023-04-01T16:40:23;98851.97;;;12.92;86.63
59435;BME280;45241;49.768;8.636;2023-04-01T16:42:53;98847.53;;;13.14;86.91
59435;BME280;45241;49.768;8.636;2023-04-01T16:47:57;98848.16;;;13.05;85.39
59435;BME280;45241;49.768;8.636;2023-04-01T16:50:48;98847.66;;;13.08;85.00
59435;BME280;45241;49.768;8.636;2023-04-01T16:53:30;98851.94;;;13.20;85.48
59435;BME280;45241;49.768;8.636;2023-04-01T16:58:33;98857.41;;;13.09;85.53
59435;BME280;45241;49.768;8.636;2023-04-01T17:01:06;98868.25;;;13.14;85.37
59435;BME280;45241;49.768;8.636;2023-04-01T17:03:41;98863.72;;;13.03;84.58
59435;BME280;45241;49.768;8.636;2023-04-01T17:09:58;98867.72;;;13.00;84.82
59435;BME280;45241;49.768;8.636;2023-04-01T17:12:03;98870.91;;;12.97;84.54
59435;BME280;45241;49.768;8.636;2023-04-01T17:14:51;98874.00;;;13.06;84.26
59435;BME280;45241;49.768;8.636;2023-04-01T17:22:52;98874.25;;;13.04;84.07
59435;BME280;45241;49.768;8.636;2023-04-01T17:25:48;98880.97;;;13.18;83.75
59435;BME280;45241;49.768;8.636;2023-04-01T17:28:28;98881.91;;;12.96;83.39
59435;BME280;45241;49.768;8.636;2023-04-01T17:30:58;98878.25;;;13.02;83.61
59435;BME280;45241;49.768;8.636;2023-04-01T17:33:37;98895.69;;;12.99;84.15
59435;BME280;45241;49.768;8.636;2023-04-01T17:39:07;98915.66;;;13.03;83.49
59435;BME280;45241;49.768;8.636;2023-04-01T17:41:55;98902.38;;;12.97;84.13
59435;BME280;45241;49.768;8.636;2023-04-01T17:44:44;98918.25;;;12.86;84.45
59435;BME280;45241;49.768;8.636;2023-04-01T17:52:32;98926.00;;;12.83;84.57
59435;BME280;45241;49.768;8.636;2023-04-01T17:58:03;98930.56;;;12.82;86.86
59435;BME280;45241;49.768;8.636;2023-04-01T18:01:02;98936.84;;;12.88;87.72
59435;BME280;45241;49.768;8.636;2023-04-01T18:03:47;98935.81;;;12.89;87.52
59435;BME280;45241;49.768;8.636;2023-04-01T18:06:35;98945.28;;;12.80;87.90
59435;BME280;45241;49.768;8.636;2023-04-01T18:09:09;98952.06;;;12.82;88.08
59435;BME280;45241;49.768;8.636;2023-04-01T18:11:41;98958.84;;;12.85;87.62
59435;BME280;45241;49.768;8.636;2023-04-01T18:14:31;98967.84;;;12.67;87.57
59435;BME280;45241;49.768;8.636;2023-04-01T18:20:07;98968.91;;;12.89;85.90
59435;BME280;45241;49.768;8.636;2023-04-01T18:22:47;98974.41;;;12.71;86.41
59435;BME280;45241;49.768;8.636;2023-04-01T18:25:21;98975.09;;;12.67;85.68
59435;BME280;45241;49.768;8.636;2023-04-01T18:27:57;98980.47;;;12.78;86.40
59435;BME280;45241;49.768;8.636;2023-04-01T18:30:28;98985.28;;;12.65;85.43
59435;BME280;45241;49.768;8.636;2023-04-01T18:32:59;98987.50;;;12.68;85.38
59435;BME280;45241;49.768;8.636;2023-04-01T18:38:12;99002.13;;;12.83;84.58
59435;BME280;45241;49.768;8.636;2023-04-01T18:40:53;98999.66;;;12.82;85.01
59435;BME280;45241;49.768;8.636;2023-04-01T18:43:30;99002.56;;;12.80;84.28
59435;BME280;45241;49.768;8.636;2023-04-01T18:46:39;99005.25;;;12.80;84.48
59435;BME280;45241;49.768;8.636;2023-04-01T18:54:31;99010.19;;;12.83;85.06
59435;BME280;45241;49.768;8.636;2023-04-01T18:57:19;99026.91;;;12.85;84.65
59435;BME280;45241;49.768;8.636;2023-04-01T18:59:55;99020.94;;;12.83;85.45
59435;BME280;45241;49.768;8.636;2023-04-01T19:02:38;99024.56;;;12.89;84.90
59435;BME280;45241;49.768;8.636;2023-04-01T19:05:19;99029.09;;;12.88;84.93